Smarca, Slovenia

02:38 AM CEST on julij 25, 2017 (GMT +0200)
kamnik | | Change Station

Viš 1207 ft 46.21 °N, 14.60 °E | Updated 53 seconds ago

Pretezno oblacno
Pretezno oblacno
59.7 °F
Feels Like 59.7 °F
N
0.0
Veter Spremenljivo Veter od Jug
Gusts 0.0 mph

Danes
High -- | Low -- °F
--% Chance of Precip.
Yesterday
High -- | Low -- °F
Precip. -- v
Zračni tlak 29.71 v
Vidljivost 6.2 milje
Oblaki Few 5000 ft
Pretezno oblacno 9500 ft
Rosišče 59 °F
Vlažnost 97%
Padavine 0.00 v
Snow Depth Not available.
5:35 AM 8:40 PM
Naraščajoči krajec, 4% visible
METAR LJLJ 250030Z VRB01KT 9999 FEW050 BKN095 14/13 Q1006 NOSIG
Zračni tlak 29.71 v
Vidljivost 6.2 milje
Oblaki Few 5000 ft
Pretezno oblacno 9500 ft
Rosišče 59 °F
Vlažnost 97%
Padavine 0.00 v
Snow Depth Not available.
5:35 AM 8:40 PM
Naraščajoči krajec, 4% visible
METAR LJLJ 250030Z VRB01KT 9999 FEW050 BKN095 14/13 Q1006 NOSIG

Get Severe Weather Alerts

Thanks for signing up!

Be on the lookout for a verification email in your inbox.

You'll start receiving the daily forecast at 6 AM.

×

10-Day Weather Forecast

×

Almanac

Astronomija

Jul. 25, 2017 Rise Set
Actual Time
Civil Twilight
Nautical Twilight
Astronomical Twilight
Moon
Length Of Visible Light
Dolžina dneva
Tomorrow will be .
, % of the Moon is Illuminated

Današnji ekstremi

Country Highs Country Lows

Community

WunderPhotos

Category 6

Welcome to Category 6. This is the collective home for Weather Underground's featured writeups by Dr. Jeff Masters (right), Bob Henson (left), Chris Burt, and other regular contributors.

Nearby

Air Quality

  Air Quality AQ Index Pollutant
Not available.

Snow Depth

Station Depth Višina

Earthquake Activity

City Distance Mag. Time & Date
Minimum magnitude displayed is 2.5.

Coastal Water Temperatures

Mesto Temperatura

Stations

Nearby Weather Stations

Station Location Temp Občutek zaradi vetra Rosišče Vlažnost Veter Precip. Viš Obnovljeno Type